KCON/CON METAR and TAF weather

Enter ICAO airport designator
Station Type Date Time Source
KCON METAR 2019/06/26 21:51 UTC NOAA

KCON 262151Z AUTO 15007KT 10SM CLR 28/17 A2996 RMK AO2 SLP144 T02780167


Station Type Date Time Source
KCON Decoded METAR 2019/06/26 21:51 UTC NOAA

Concord, Concord Municipal Airport, NH, United States (KCON) 43-11-43N 071-30-04W 103M
Jun 26, 2019 - 05:51 PM EDT / 2019.06.26 2151 UTC
Wind: from the SSE (150 degrees) at 8 MPH (7 KT):0
Visibility: 10 mile(s):0
Sky conditions: clear
Temperature: 82.0 F (27.8 C)
Dew Point: 62.1 F (16.7 C)
Relative Humidity: 50%
Pressure (altimeter): 29.96 in. Hg (1014 hPa)
ob: KCON 262151Z AUTO 15007KT 10SM CLR 28/17 A2996 RMK AO2 SLP144 T02780167
cycle: 22

Station Type Date Time Source
KCON TAF 2019/06/26 18:22 UTC NOAA

TAF KCON 261720Z 2618/2718 VRB04KT P6SM FEW030
FM270700 00000KT 6SM BR BKN006
FM271300 00000KT P6SM SCT250
FM271400 00000KT P6SM SCT040

Example: see airport list